Time;durP1;ratioP1;P1;durP2;ratioP2;P2;SDS_P1;SDS_P2;PMS_P1;PMS_P2;Temp;Humidity;BMP_temperature;BMP_pressure;BME280_temperature;BME280_humidity;BME280_pressure;Samples;Min_cycle;Max_cycle;Signal;HPM_P1;HPM_P2
2022/05/31 00:01:06;;;;;;;;;;;9.60;99.90;;;;;;2602726;54;20171;31
2022/05/31 00:03:42;;;;;;;;;;;9.60;99.90;;;;;;2602087;54;20636;31
2022/05/31 00:06:16;;;;;;;;;;;9.50;99.90;;;;;;2602712;54;19942;31
2022/05/31 00:08:52;;;;;;;;;;;9.50;99.90;;;;;;2602787;54;19934;31
2022/05/31 00:11:27;;;;;;;;;;;9.60;99.90;;;;;;2621411;46;20725;31
2022/05/31 00:14:04;;;;;;;;;;;9.40;99.90;;;;;;2602700;54;20762;31
2022/05/31 00:16:39;;;;;;;;;;;9.40;99.90;;;;;;2602558;54;19960;31
2022/05/31 00:19:14;;;;;;;;;;;9.30;99.90;;;;;;2602758;54;19934;31
2022/05/31 00:21:51;;;;;;;;;;;9.30;99.90;;;;;;2602539;54;19997;31
2022/05/31 00:24:27;;;;;;;;;;;9.20;99.90;;;;;;2602574;54;19934;31
2022/05/31 00:27:04;;;;;;;;;;;9.20;99.90;;;;;;2602427;54;19935;31
2022/05/31 00:29:42;;;;;;;;;;;9.10;99.90;;;;;;2602495;54;19942;31
2022/05/31 00:32:16;;;;;;;;;;;9.00;99.90;;;;;;2602530;54;19934;31
2022/05/31 00:34:56;;;;;;;;;;;9.70;99.90;;;;;;2620962;47;19941;31
2022/05/31 00:37:35;;;;;;;;;;;9.00;99.90;;;;;;2601719;54;19935;31
2022/05/31 00:40:12;;;;;;;;;;;8.90;99.90;;;;;;2621070;47;20791;31
2022/05/31 00:42:48;;;;;;;;;;;8.90;99.90;;;;;;2602720;54;20648;31
2022/05/31 00:45:29;;;;;;;;;;;8.90;99.90;;;;;;2621044;47;19934;31
2022/05/31 00:48:07;;;;;;;;;;;8.80;99.90;;;;;;2603267;54;19941;31
2022/05/31 00:50:44;;;;;;;;;;;8.90;99.90;;;;;;2621896;46;19939;31
2022/05/31 00:53:20;;;;;;;;;;;8.80;99.90;;;;;;2621969;46;20789;31
2022/05/31 00:55:55;;;;;;;;;;;8.80;99.90;;;;;;2621995;46;20769;31
2022/05/31 00:58:33;;;;;;;;;;;8.70;99.90;;;;;;2603172;54;20051;31
2022/05/31 01:01:10;;;;;;;;;;;8.70;99.90;;;;;;2602533;54;19949;31
2022/05/31 01:03:45;;;;;;;;;;;8.70;99.90;;;;;;2603455;54;20748;31
2022/05/31 01:06:20;;;;;;;;;;;8.70;99.90;;;;;;2603514;54;19935;31
2022/05/31 01:08:55;;;;;;;;;;;8.60;99.90;;;;;;2622258;46;19935;31
2022/05/31 01:11:39;;;;;;;;;;;8.60;99.90;;;;;;2702046;39;20353;31
2022/05/31 01:14:20;;;;;;;;;;;8.50;99.90;;;;;;2603404;54;19957;31
2022/05/31 01:17:32;;;;;;;;;;;8.50;99.90;;;;;;2603362;54;19935;31
2022/05/31 01:20:41;;;;;;;;;;;8.40;99.90;;;;;;2603184;54;19935;31
2022/05/31 01:23:23;;;;;;;;;;;8.30;99.90;;;;;;2602396;54;20669;31
2022/05/31 01:26:03;;;;;;;;;;;8.30;99.90;;;;;;2603137;54;19934;31
2022/05/31 01:28:41;;;;;;;;;;;8.20;99.90;;;;;;2603159;54;20759;31
2022/05/31 01:31:17;;;;;;;;;;;8.20;99.90;;;;;;2603135;54;19934;31
2022/05/31 01:33:51;;;;;;;;;;;8.20;99.90;;;;;;2701778;39;20408;31
2022/05/31 01:36:29;;;;;;;;;;;8.10;99.90;;;;;;2621721;46;20807;31
2022/05/31 01:39:07;;;;;;;;;;;8.10;99.90;;;;;;2602593;54;19943;31
2022/05/31 01:41:41;;;;;;;;;;;9.30;99.90;;;;;;2602696;54;20701;31
2022/05/31 01:44:18;;;;;;;;;;;8.10;99.90;;;;;;2621156;46;20754;31
2022/05/31 01:46:52;;;;;;;;;;;8.00;99.90;;;;;;2603352;54;19935;31
2022/05/31 01:49:30;;;;;;;;;;;8.10;99.90;;;;;;2603433;54;20775;31
2022/05/31 01:52:04;;;;;;;;;;;8.00;99.90;;;;;;2602577;54;20766;31
2022/05/31 01:54:42;;;;;;;;;;;8.00;99.90;;;;;;2621651;46;19942;31
2022/05/31 01:57:17;;;;;;;;;;;8.00;99.90;;;;;;2603165;54;19935;31
2022/05/31 01:59:53;;;;;;;;;;;7.90;99.90;;;;;;2602962;54;20673;31
2022/05/31 02:02:30;;;;;;;;;;;7.90;99.90;;;;;;2603122;54;20810;31
2022/05/31 02:05:05;;;;;;;;;;;7.80;99.90;;;;;;2603293;54;19957;31
2022/05/31 02:07:40;;;;;;;;;;;7.80;99.90;;;;;;2621571;46;19938;31
2022/05/31 02:10:19;;;;;;;;;;;7.80;99.90;;;;;;2621907;46;19942;31
2022/05/31 02:12:55;;;;;;;;;;;7.80;99.90;;;;;;2603298;54;20764;31
2022/05/31 02:15:59;;;;;;;;;;;7.70;99.90;;;;;;2701754;39;21206;31
2022/05/31 02:21:49;;;;;;;;;;;7.60;99.90;;;;;;2603308;54;19993;31
2022/05/31 02:24:24;;;;;;;;;;;7.60;99.90;;;;;;2602429;54;20836;31
2022/05/31 02:27:03;;;;;;;;;;;7.60;99.90;;;;;;2602393;54;20040;31
2022/05/31 02:29:41;;;;;;;;;;;7.50;99.90;;;;;;2621647;46;19935;31
2022/05/31 02:32:18;;;;;;;;;;;7.50;99.90;;;;;;2621602;46;20017;31
2022/05/31 02:34:55;;;;;;;;;;;7.50;99.90;;;;;;2603038;54;20017;31
2022/05/31 02:37:34;;;;;;;;;;;7.50;99.90;;;;;;2603196;54;19962;31
2022/05/31 02:40:09;;;;;;;;;;;7.40;99.90;;;;;;2602887;54;20767;31
2022/05/31 02:42:44;;;;;;;;;;;7.40;99.90;;;;;;2621790;46;20722;31
2022/05/31 02:45:21;;;;;;;;;;;7.30;99.90;;;;;;2621441;46;20013;31
2022/05/31 02:47:58;;;;;;;;;;;7.30;99.90;;;;;;2602887;54;20044;31
2022/05/31 02:50:35;;;;;;;;;;;7.30;99.90;;;;;;2602913;54;20745;31
2022/05/31 02:53:10;;;;;;;;;;;7.30;99.90;;;;;;2621780;46;20780;31
2022/05/31 02:55:45;;;;;;;;;;;7.30;99.90;;;;;;2602926;54;19989;31
2022/05/31 02:58:42;;;;;;;;;;;7.20;99.90;;;;;;2603334;54;19962;31
2022/05/31 03:01:48;;;;;;;;;;;7.20;99.90;;;;;;2602936;54;20700;31
2022/05/31 03:04:46;;;;;;;;;;;7.20;99.90;;;;;;2603066;54;19939;31
2022/05/31 03:07:53;;;;;;;;;;;7.20;99.90;;;;;;2602733;54;20778;31
2022/05/31 03:13:15;;;;;;;;;;;7.20;99.90;;;;;;2602330;54;21036;31
2022/05/31 03:15:52;;;;;;;;;;;7.10;99.90;;;;;;2603139;54;20661;31
2022/05/31 03:18:30;;;;;;;;;;;7.10;99.90;;;;;;2602907;54;19941;31
2022/05/31 03:21:07;;;;;;;;;;;7.10;99.90;;;;;;2621321;46;20719;31
2022/05/31 03:23:45;;;;;;;;;;;7.10;99.90;;;;;;2621506;46;19939;31
2022/05/31 03:26:22;;;;;;;;;;;7.20;99.90;;;;;;2603064;54;19960;31
2022/05/31 03:28:57;;;;;;;;;;;7.20;99.90;;;;;;2621731;46;20087;31
2022/05/31 03:31:32;;;;;;;;;;;7.30;99.90;;;;;;2621232;46;19942;31
2022/05/31 03:34:07;;;;;;;;;;;7.40;99.90;;;;;;2602216;54;20783;31
2022/05/31 03:36:42;;;;;;;;;;;7.60;99.90;;;;;;2620389;46;20864;31
2022/05/31 03:39:23;;;;;;;;;;;7.80;99.90;;;;;;2603014;54;19941;31
2022/05/31 03:42:01;;;;;;;;;;;7.90;99.90;;;;;;2602681;54;20731;31
2022/05/31 03:44:36;;;;;;;;;;;8.10;99.90;;;;;;2602823;54;19935;31
2022/05/31 03:47:37;;;;;;;;;;;8.30;99.90;;;;;;2602760;54;19934;31
2022/05/31 03:50:39;;;;;;;;;;;8.50;99.90;;;;;;2602579;54;19981;31
2022/05/31 03:53:18;;;;;;;;;;;8.70;99.90;;;;;;2601907;54;19942;31
2022/05/31 03:55:56;;;;;;;;;;;8.90;99.90;;;;;;2602861;54;20748;31
2022/05/31 03:58:37;;;;;;;;;;;9.10;99.90;;;;;;2601913;54;20013;31
2022/05/31 04:01:28;;;;;;;;;;;9.30;99.90;;;;;;2602882;54;19934;31
2022/05/31 04:04:04;;;;;;;;;;;9.60;99.90;;;;;;2602968;54;20772;31
2022/05/31 04:06:39;;;;;;;;;;;9.80;99.90;;;;;;2602751;54;19941;31
2022/05/31 04:09:16;;;;;;;;;;;10.00;99.90;;;;;;2602630;54;19947;31
2022/05/31 04:11:51;;;;;;;;;;;10.20;99.90;;;;;;2602641;54;19981;31
2022/05/31 04:14:49;;;;;;;;;;;10.40;99.90;;;;;;2602713;54;20742;31
2022/05/31 04:17:24;;;;;;;;;;;10.60;99.90;;;;;;2602806;54;19934;31
2022/05/31 04:20:00;;;;;;;;;;;10.80;99.90;;;;;;2621073;46;19950;31
2022/05/31 04:22:35;;;;;;;;;;;11.00;99.90;;;;;;2602714;54;19954;31
2022/05/31 04:25:34;;;;;;;;;;;11.20;99.90;;;;;;2602685;54;19934;31
2022/05/31 04:28:29;;;;;;;;;;;11.40;99.90;;;;;;2602893;54;19958;31
2022/05/31 04:31:50;;;;;;;;;;;11.50;99.90;;;;;;2602936;54;20778;31
2022/05/31 04:34:47;;;;;;;;;;;11.80;99.90;;;;;;2621112;47;20661;31
2022/05/31 04:37:26;;;;;;;;;;;12.00;99.90;;;;;;2621084;47;19954;31
2022/05/31 04:40:03;;;;;;;;;;;12.10;99.90;;;;;;2602471;54;19994;31
2022/05/31 04:43:07;;;;;;;;;;;12.30;99.90;;;;;;2602577;54;19943;31
2022/05/31 04:45:56;;;;;;;;;;;12.60;99.90;;;;;;2602869;54;20704;31
2022/05/31 04:48:40;;;;;;;;;;;12.80;99.90;;;;;;2621283;47;21504;31
2022/05/31 04:51:15;;;;;;;;;;;12.90;99.90;;;;;;2621345;47;19941;31
2022/05/31 04:54:03;;;;;;;;;;;13.10;99.90;;;;;;2621283;47;19942;31
2022/05/31 04:56:45;;;;;;;;;;;13.30;99.90;;;;;;2602940;54;20001;31
2022/05/31 04:59:20;;;;;;;;;;;13.50;99.90;;;;;;2602737;54;20750;31
2022/05/31 05:01:56;;;;;;;;;;;13.60;99.90;;;;;;2602187;54;21641;31
2022/05/31 05:04:51;;;;;;;;;;;13.70;99.90;;;;;;2602668;54;19989;31
2022/05/31 05:07:58;;;;;;;;;;;13.90;99.90;;;;;;2602724;54;19934;31
2022/05/31 05:10:40;;;;;;;;;;;14.20;99.90;;;;;;2602762;54;19942;31
2022/05/31 05:13:33;;;;;;;;;;;14.40;99.90;;;;;;2603024;54;20845;31
2022/05/31 05:16:18;;;;;;;;;;;14.60;99.90;;;;;;2602807;54;20775;31
2022/05/31 05:18:59;;;;;;;;;;;14.80;99.90;;;;;;2602691;54;19961;31
2022/05/31 05:21:37;;;;;;;;;;;15.10;99.90;;;;;;2602911;54;19942;31
2022/05/31 05:24:13;;;;;;;;;;;15.20;99.90;;;;;;2602690;54;19935;31
2022/05/31 05:27:10;;;;;;;;;;;15.40;99.90;;;;;;2620567;47;19934;31
2022/05/31 05:33:04;;;;;;;;;;;15.90;99.90;;;;;;2602900;54;20728;31
2022/05/31 05:35:44;;;;;;;;;;;16.20;99.90;;;;;;2603512;54;20771;31
2022/05/31 05:38:20;;;;;;;;;;;16.20;99.90;;;;;;2603885;54;20729;31
2022/05/31 05:41:15;;;;;;;;;;;16.30;99.90;;;;;;2603853;54;20674;31
2022/05/31 05:44:13;;;;;;;;;;;16.50;99.90;;;;;;2603620;54;20770;31
2022/05/31 05:46:49;;;;;;;;;;;16.70;99.90;;;;;;2603547;54;19942;31
2022/05/31 05:49:26;;;;;;;;;;;16.70;99.90;;;;;;2622376;46;20779;31
2022/05/31 05:52:03;;;;;;;;;;;16.80;99.90;;;;;;2603285;54;20050;31
2022/05/31 05:55:16;;;;;;;;;;;16.90;99.90;;;;;;2603247;54;20732;31
2022/05/31 05:58:10;;;;;;;;;;;17.20;99.90;;;;;;2603811;54;20758;31
2022/05/31 06:01:06;;;;;;;;;;;17.50;99.90;;;;;;2603663;54;20832;31
2022/05/31 06:03:50;;;;;;;;;;;17.70;99.90;;;;;;2603573;54;20735;31
2022/05/31 06:06:26;;;;;;;;;;;17.90;99.90;;;;;;2603455;54;20765;31
2022/05/31 06:09:07;;;;;;;;;;;18.10;99.90;;;;;;2603524;54;21350;31
2022/05/31 06:11:44;;;;;;;;;;;18.30;99.90;;;;;;2622195;46;21465;31
2022/05/31 06:14:21;;;;;;;;;;;18.40;99.90;;;;;;2603363;54;20042;31
2022/05/31 06:17:00;;;;;;;;;;;18.60;99.90;;;;;;2603374;54;20595;31
2022/05/31 06:19:35;;;;;;;;;;;18.90;99.90;;;;;;2603430;54;20691;31
2022/05/31 06:22:10;;;;;;;;;;;19.10;99.90;;;;;;2701083;39;20464;31
2022/05/31 06:24:55;;;;;;;;;;;19.30;99.90;;;;;;2621813;46;20021;31
2022/05/31 06:28:02;;;;;;;;;;;19.50;99.90;;;;;;2603243;54;21190;31
2022/05/31 06:30:37;;;;;;;;;;;19.70;99.90;;;;;;2603500;54;19935;31
2022/05/31 06:33:15;;;;;;;;;;;19.80;99.90;;;;;;2602588;54;19949;31
2022/05/31 06:35:54;;;;;;;;;;;19.80;99.90;;;;;;2602496;54;20227;31
2022/05/31 06:38:32;;;;;;;;;;;19.70;99.90;;;;;;2720515;39;21529;31
2022/05/31 06:41:10;;;;;;;;;;;19.60;99.90;;;;;;2603528;54;19946;31
2022/05/31 06:44:20;;;;;;;;;;;19.60;99.90;;;;;;2603422;54;20790;31
2022/05/31 06:47:14;;;;;;;;;;;19.70;99.90;;;;;;2603612;54;20798;31
2022/05/31 06:50:09;;;;;;;;;;;;;;;;;;2603505;54;20745;31
2022/05/31 06:59:17;;;;;;;;;;;20.30;99.90;;;;;;2603530;54;20775;31
2022/05/31 07:04:23;;;;;;;;;;;;;;;;;;2603128;54;19942;31
2022/05/31 07:06:58;;;;;;;;;;;;;;;;;;2621095;46;20655;31
2022/05/31 07:10:00;;;;;;;;;;;20.90;99.90;;;;;;2603404;54;20791;31
2022/05/31 07:13:05;;;;;;;;;;;20.90;99.90;;;;;;2603468;54;19934;31
2022/05/31 07:16:02;;;;;;;;;;;21.30;99.90;;;;;;2603401;54;19970;31
2022/05/31 07:19:04;;;;;;;;;;;;;;;;;;2603164;54;19973;31
2022/05/31 07:21:46;;;;;;;;;;;21.70;99.90;;;;;;2621806;46;20764;31
2022/05/31 07:24:20;;;;;;;;;;;21.70;99.40;;;;;;2621971;46;20020;31
2022/05/31 07:27:22;;;;;;;;;;;21.80;99.00;;;;;;2602942;54;20662;31
2022/05/31 07:30:05;;;;;;;;;;;21.80;98.30;;;;;;2603229;54;19985;31
2022/05/31 07:32:45;;;;;;;;;;;22.10;99.00;;;;;;2603106;54;19941;31
2022/05/31 07:35:43;;;;;;;;;;;22.20;98.20;;;;;;2603228;54;21228;31
2022/05/31 07:38:20;;;;;;;;;;;22.40;97.60;;;;;;2621652;46;20001;31
2022/05/31 07:40:57;;;;;;;;;;;22.30;96.90;;;;;;2621651;46;20839;31
2022/05/31 07:43:35;;;;;;;;;;;22.40;96.60;;;;;;2621470;46;19935;31
2022/05/31 07:46:14;;;;;;;;;;;22.50;96.00;;;;;;2603240;54;19943;31
2022/05/31 07:48:53;;;;;;;;;;;22.70;96.60;;;;;;2621579;46;20655;31
2022/05/31 07:51:54;;;;;;;;;;;22.70;95.90;;;;;;2602906;54;19942;31
2022/05/31 07:54:48;;;;;;;;;;;22.70;95.00;;;;;;2603339;54;19942;31
2022/05/31 08:01:07;;;;;;;;;;;22.80;94.70;;;;;;2602997;54;20843;31
2022/05/31 08:03:44;;;;;;;;;;;23.00;94.80;;;;;;2602920;54;19997;31
2022/05/31 08:06:22;;;;;;;;;;;23.30;95.40;;;;;;2603069;54;19934;31
2022/05/31 08:08:57;;;;;;;;;;;23.50;94.10;;;;;;2602949;54;20774;31
2022/05/31 08:11:32;;;;;;;;;;;23.40;93.00;;;;;;2603097;54;19935;31
2022/05/31 08:14:07;;;;;;;;;;;23.40;92.50;;;;;;2621433;46;19935;31
2022/05/31 08:16:43;;;;;;;;;;;23.50;93.10;;;;;;2701171;39;21339;31
2022/05/31 08:19:18;;;;;;;;;;;23.60;93.40;;;;;;2602252;54;19947;31
2022/05/31 08:21:55;;;;;;;;;;;23.60;91.50;;;;;;2603026;54;19957;31
2022/05/31 08:24:34;;;;;;;;;;;23.50;91.60;;;;;;2603043;54;19942;31
2022/05/31 08:27:19;;;;;;;;;;;23.50;91.90;;;;;;2602744;54;19938;31
2022/05/31 08:29:53;;;;;;;;;;;23.40;91.90;;;;;;2621806;47;20631;31
2022/05/31 08:32:32;;;;;;;;;;;23.30;92.90;;;;;;2602901;54;19942;31
2022/05/31 08:35:08;;;;;;;;;;;23.40;93.00;;;;;;2602869;54;19941;31
2022/05/31 08:37:43;;;;;;;;;;;23.60;92.10;;;;;;2603164;54;20812;31
2022/05/31 08:40:21;;;;;;;;;;;23.60;91.30;;;;;;2603020;54;21236;31
2022/05/31 08:43:01;;;;;;;;;;;23.70;91.90;;;;;;2602557;54;19946;31
2022/05/31 08:45:36;;;;;;;;;;;23.70;90.60;;;;;;2603069;54;19941;31
2022/05/31 08:48:12;;;;;;;;;;;23.80;90.60;;;;;;2621229;47;19935;31
2022/05/31 08:53:41;;;;;;;;;;;24.00;90.80;;;;;;2621453;47;21382;31
2022/05/31 08:59:08;;;;;;;;;;;24.30;89.20;;;;;;2602858;54;20788;31
2022/05/31 09:01:43;;;;;;;;;;;24.40;89.90;;;;;;2602601;54;20480;31
2022/05/31 09:04:20;;;;;;;;;;;24.60;89.50;;;;;;2621481;47;20647;31
2022/05/31 09:06:55;;;;;;;;;;;24.70;90.00;;;;;;2621448;47;19947;31
2022/05/31 09:09:30;;;;;;;;;;;24.80;89.90;;;;;;2603653;54;20806;31
2022/05/31 09:12:09;;;;;;;;;;;24.50;86.40;;;;;;2602846;54;20800;31
2022/05/31 09:14:49;;;;;;;;;;;24.20;87.40;;;;;;2603319;54;20587;31
2022/05/31 09:17:26;;;;;;;;;;;24.30;88.60;;;;;;2603609;54;20779;31
2022/05/31 09:20:04;;;;;;;;;;;24.30;87.70;;;;;;2603430;54;19981;31
2022/05/31 09:22:39;;;;;;;;;;;24.20;84.50;;;;;;2622272;46;19981;31
2022/05/31 09:25:18;;;;;;;;;;;24.20;85.00;;;;;;2603706;54;20779;31
2022/05/31 09:27:55;;;;;;;;;;;24.30;86.00;;;;;;2603750;54;20685;31
2022/05/31 09:30:32;;;;;;;;;;;24.40;88.10;;;;;;2603418;54;19941;31
2022/05/31 09:33:09;;;;;;;;;;;24.60;84.80;;;;;;2603610;54;19961;31
2022/05/31 09:35:44;;;;;;;;;;;24.60;85.20;;;;;;2622015;46;19957;31
2022/05/31 09:38:21;;;;;;;;;;;24.50;84.40;;;;;;2622194;46;19934;31
2022/05/31 09:41:05;;;;;;;;;;;24.50;83.70;;;;;;2603303;54;20011;31
2022/05/31 09:43:45;;;;;;;;;;;24.40;82.80;;;;;;2603355;54;20816;31
2022/05/31 09:46:22;;;;;;;;;;;24.50;83.00;;;;;;2603426;54;20656;31
2022/05/31 09:48:57;;;;;;;;;;;24.60;82.60;;;;;;2603456;54;19934;31
2022/05/31 09:51:34;;;;;;;;;;;24.70;82.60;;;;;;2606111;46;19941;31
2022/05/31 09:57:27;;;;;;;;;;;24.80;83.20;;;;;;2603607;54;20822;31
2022/05/31 10:00:10;;;;;;;;;;;24.60;81.60;;;;;;2602685;54;19943;31
2022/05/31 10:02:56;;;;;;;;;;;24.60;82.20;;;;;;2603654;54;19934;31
2022/05/31 10:05:36;;;;;;;;;;;24.60;82.70;;;;;;2614356;46;19946;31
2022/05/31 10:08:18;;;;;;;;;;;24.50;81.70;;;;;;2603495;54;19941;31
2022/05/31 10:10:52;;;;;;;;;;;24.50;82.20;;;;;;2603337;54;19935;31
2022/05/31 10:13:38;;;;;;;;;;;24.40;82.00;;;;;;2603351;54;21049;31
2022/05/31 10:16:16;;;;;;;;;;;24.60;81.30;;;;;;2603492;54;19941;31
2022/05/31 10:18:51;;;;;;;;;;;24.60;80.90;;;;;;2622045;46;20001;31
2022/05/31 10:21:34;;;;;;;;;;;24.50;82.40;;;;;;2621404;47;22295;31
2022/05/31 10:24:15;;;;;;;;;;;24.40;81.60;;;;;;2621913;46;19957;31
2022/05/31 10:27:08;;;;;;;;;;;24.60;81.20;;;;;;2603612;54;20820;31
2022/05/31 10:30:03;;;;;;;;;;;24.80;81.20;;;;;;2603249;54;20862;31
2022/05/31 10:32:58;;;;;;;;;;;24.80;81.20;;;;;;2603196;54;19942;31
2022/05/31 10:35:33;;;;;;;;;;;25.00;81.30;;;;;;2603218;54;19985;31
2022/05/31 10:38:12;;;;;;;;;;;25.10;80.40;;;;;;2603405;54;19934;31
2022/05/31 10:40:52;;;;;;;;;;;25.00;80.00;;;;;;2603234;54;20017;31
2022/05/31 10:43:30;;;;;;;;;;;24.90;80.30;;;;;;2603090;54;20568;31
2022/05/31 10:46:08;;;;;;;;;;;24.70;79.60;;;;;;2603237;54;19957;31
2022/05/31 10:48:46;;;;;;;;;;;24.90;81.10;;;;;;2603327;54;19935;31
2022/05/31 10:51:24;;;;;;;;;;;24.90;80.30;;;;;;2603380;54;19935;31
2022/05/31 10:54:08;;;;;;;;;;;25.00;81.30;;;;;;2603262;54;20863;31
2022/05/31 10:56:45;;;;;;;;;;;24.90;80.10;;;;;;2621679;46;19942;31
2022/05/31 10:59:26;;;;;;;;;;;24.70;79.90;;;;;;2621560;46;20013;31
2022/05/31 11:02:03;;;;;;;;;;;24.40;80.80;;;;;;2621736;46;19941;31
2022/05/31 11:04:55;;;;;;;;;;;24.40;78.90;;;;;;2603140;54;19991;31
2022/05/31 11:07:38;;;;;;;;;;;24.40;79.50;;;;;;2603085;54;19951;31
2022/05/31 11:13:10;;;;;;;;;;;24.50;80.20;;;;;;2622095;46;20741;31
2022/05/31 11:15:52;;;;;;;;;;;24.60;78.50;;;;;;2603317;54;20414;31
2022/05/31 11:18:29;;;;;;;;;;;24.40;79.20;;;;;;2603002;54;20736;31
2022/05/31 11:21:06;;;;;;;;;;;24.30;79.30;;;;;;2603324;54;19997;31
2022/05/31 11:23:47;;;;;;;;;;;24.30;80.40;;;;;;2621753;46;20641;31
2022/05/31 11:26:26;;;;;;;;;;;24.30;79.50;;;;;;2602801;54;19934;31
2022/05/31 11:29:29;;;;;;;;;;;24.30;80.40;;;;;;2603212;54;20776;31
2022/05/31 11:32:06;;;;;;;;;;;24.50;79.50;;;;;;2603059;54;19957;31
2022/05/31 11:34:44;;;;;;;;;;;24.40;80.00;;;;;;2603306;54;20808;31
2022/05/31 11:37:25;;;;;;;;;;;24.40;81.60;;;;;;2603112;54;19935;31
2022/05/31 11:40:04;;;;;;;;;;;24.40;79.70;;;;;;2603243;54;19941;31
2022/05/31 11:42:44;;;;;;;;;;;24.50;82.20;;;;;;2621527;46;20510;31
2022/05/31 11:45:21;;;;;;;;;;;24.40;79.10;;;;;;2611398;46;20206;31
2022/05/31 11:48:08;;;;;;;;;;;24.30;81.20;;;;;;2701605;39;21251;31
2022/05/31 11:50:44;;;;;;;;;;;24.20;79.80;;;;;;2621464;46;19941;31
2022/05/31 11:53:27;;;;;;;;;;;24.20;82.80;;;;;;2602940;54;19942;31
2022/05/31 11:56:03;;;;;;;;;;;24.00;80.60;;;;;;2720395;39;20421;31
2022/05/31 11:58:39;;;;;;;;;;;24.00;81.30;;;;;;2621429;46;20781;31
2022/05/31 12:01:22;;;;;;;;;;;24.10;82.60;;;;;;2602931;54;19946;31
2022/05/31 12:04:00;;;;;;;;;;;23.90;80.40;;;;;;2602901;54;20855;31
2022/05/31 12:06:39;;;;;;;;;;;23.70;79.70;;;;;;2603110;54;19935;31
2022/05/31 12:09:18;;;;;;;;;;;23.70;80.90;;;;;;2603003;54;19994;31
2022/05/31 12:11:54;;;;;;;;;;;23.70;80.80;;;;;;2602968;54;19935;31
2022/05/31 12:14:31;;;;;;;;;;;23.80;80.00;;;;;;2602199;54;20004;31
2022/05/31 12:17:10;;;;;;;;;;;23.90;79.10;;;;;;2616839;46;20021;31
2022/05/31 12:19:45;;;;;;;;;;;24.00;79.90;;;;;;2602783;54;19941;31
2022/05/31 12:22:23;;;;;;;;;;;24.10;81.00;;;;;;2701397;39;21556;31
2022/05/31 12:25:03;;;;;;;;;;;24.10;82.60;;;;;;2602891;54;19941;31
2022/05/31 12:27:44;;;;;;;;;;;24.00;81.20;;;;;;2602899;54;19934;31
2022/05/31 12:30:21;;;;;;;;;;;23.90;80.60;;;;;;2621352;46;19934;31
2022/05/31 12:32:58;;;;;;;;;;;23.90;80.70;;;;;;2621452;47;20625;31
2022/05/31 12:35:36;;;;;;;;;;;23.80;81.80;;;;;;2620744;47;19934;31
2022/05/31 12:38:15;;;;;;;;;;;23.60;82.10;;;;;;2602671;54;20841;31
2022/05/31 12:40:50;;;;;;;;;;;23.60;81.90;;;;;;2621185;47;22248;31
2022/05/31 12:43:40;;;;;;;;;;;23.60;81.80;;;;;;2603069;54;20719;31
2022/05/31 12:46:40;;;;;;;;;;;23.60;81.30;;;;;;2720439;39;20417;31
2022/05/31 12:49:26;;;;;;;;;;;23.40;81.50;;;;;;2603393;54;21358;31
2022/05/31 12:52:20;;;;;;;;;;;23.20;82.60;;;;;;2622314;46;20744;31
2022/05/31 12:54:58;;;;;;;;;;;23.10;84.40;;;;;;2603694;54;19938;31
2022/05/31 12:58:26;;;;;;;;;;;23.00;83.50;;;;;;2603372;54;19934;31
2022/05/31 13:00:39;;;;;;;;;;;23.00;84.20;;;;;;2603590;54;20013;31
2022/05/31 13:03:16;;;;;;;;;;;22.80;84.90;;;;;;2603565;54;20750;31
2022/05/31 13:06:09;;;;;;;;;;;22.70;85.00;;;;;;2702144;39;20391;31
2022/05/31 13:08:55;;;;;;;;;;;22.70;85.10;;;;;;2603437;54;19939;31
2022/05/31 13:20:13;;;;;;;;;;;22.50;86.30;;;;;;2603506;54;20761;31
2022/05/31 13:22:49;;;;;;;;;;;22.50;86.10;;;;;;2603733;54;20661;31
2022/05/31 13:25:26;;;;;;;;;;;22.50;86.50;;;;;;2603556;54;19947;31
2022/05/31 13:28:05;;;;;;;;;;;22.60;86.80;;;;;;2603146;54;20755;31
2022/05/31 13:30:42;;;;;;;;;;;22.60;87.10;;;;;;2602786;54;20882;31
2022/05/31 13:33:18;;;;;;;;;;;22.60;86.80;;;;;;2620216;46;19941;31
2022/05/31 13:36:02;;;;;;;;;;;22.60;87.50;;;;;;2603748;54;19998;31
2022/05/31 13:38:38;;;;;;;;;;;22.60;85.70;;;;;;2603414;54;21559;31
2022/05/31 13:41:15;;;;;;;;;;;22.50;86.00;;;;;;2603486;54;19941;31
2022/05/31 13:43:52;;;;;;;;;;;22.30;85.80;;;;;;2622144;46;19934;31
2022/05/31 13:46:31;;;;;;;;;;;22.30;85.10;;;;;;2603478;54;20699;31
2022/05/31 13:49:09;;;;;;;;;;;22.20;86.30;;;;;;2603394;54;19980;31
2022/05/31 13:51:46;;;;;;;;;;;22.20;86.40;;;;;;2621784;46;19946;31
2022/05/31 13:54:23;;;;;;;;;;;22.20;86.80;;;;;;2621707;46;19980;31
2022/05/31 13:57:01;;;;;;;;;;;22.20;85.40;;;;;;2603326;54;19998;31
2022/05/31 13:59:37;;;;;;;;;;;22.10;85.70;;;;;;2603252;54;19934;31
2022/05/31 14:02:18;;;;;;;;;;;22.10;85.10;;;;;;2602846;54;20760;31
2022/05/31 14:04:58;;;;;;;;;;;22.20;85.10;;;;;;2621992;46;20900;31
2022/05/31 14:07:34;;;;;;;;;;;22.20;85.10;;;;;;2622189;46;20744;31
2022/05/31 14:10:12;;;;;;;;;;;22.20;85.30;;;;;;2603366;54;19935;31
2022/05/31 14:12:48;;;;;;;;;;;22.20;85.20;;;;;;2603365;54;20746;31
2022/05/31 14:15:25;;;;;;;;;;;22.30;86.00;;;;;;2603448;54;19934;31
2022/05/31 14:18:10;;;;;;;;;;;22.30;85.20;;;;;;2603354;54;19997;31
2022/05/31 14:20:43;;;;;;;;;;;22.40;85.10;;;;;;2603175;54;21114;31
2022/05/31 14:23:19;;;;;;;;;;;22.40;85.80;;;;;;2603341;54;19935;31
2022/05/31 14:25:54;;;;;;;;;;;22.40;84.80;;;;;;2621769;46;21552;31
2022/05/31 14:28:29;;;;;;;;;;;22.40;84.70;;;;;;2603528;54;19935;31
2022/05/31 14:31:06;;;;;;;;;;;22.40;85.30;;;;;;2603407;54;19946;31
2022/05/31 14:33:43;;;;;;;;;;;22.40;84.70;;;;;;2603453;54;20641;31
2022/05/31 14:36:22;;;;;;;;;;;22.40;85.20;;;;;;2603236;54;19994;31
2022/05/31 14:38:58;;;;;;;;;;;22.40;84.10;;;;;;2609187;46;19938;31
2022/05/31 14:41:35;;;;;;;;;;;22.40;84.50;;;;;;2720672;39;21517;31
2022/05/31 14:44:12;;;;;;;;;;;22.40;83.60;;;;;;2621957;46;20497;31
2022/05/31 14:46:46;;;;;;;;;;;22.40;83.00;;;;;;2622009;46;19935;31
2022/05/31 14:49:26;;;;;;;;;;;22.40;83.40;;;;;;2622052;46;20771;31
2022/05/31 14:52:14;;;;;;;;;;;22.30;82.90;;;;;;2603676;54;20836;31
2022/05/31 14:54:51;;;;;;;;;;;22.40;83.90;;;;;;2603527;54;20515;31
2022/05/31 14:57:26;;;;;;;;;;;22.30;82.40;;;;;;2621554;46;19934;31
2022/05/31 15:00:04;;;;;;;;;;;22.30;82.30;;;;;;2603153;54;19939;31
2022/05/31 15:02:41;;;;;;;;;;;22.30;83.20;;;;;;2603386;54;20800;31
2022/05/31 15:05:19;;;;;;;;;;;22.30;86.30;;;;;;2603194;54;19934;31
2022/05/31 15:07:57;;;;;;;;;;;22.20;86.70;;;;;;2603384;54;19934;31
2022/05/31 15:10:34;;;;;;;;;;;22.20;88.00;;;;;;2621735;46;20781;31
2022/05/31 15:19:03;;;;;;;;;;;22.10;84.20;;;;;;2621508;46;19941;31
2022/05/31 15:21:38;;;;;;;;;;;22.10;84.40;;;;;;2603113;54;20452;31
2022/05/31 15:24:18;;;;;;;;;;;22.10;85.30;;;;;;2603183;54;20769;31
2022/05/31 15:26:52;;;;;;;;;;;22.00;85.10;;;;;;2621495;46;19941;31
2022/05/31 15:29:26;;;;;;;;;;;22.10;84.90;;;;;;2720433;39;21345;31
2022/05/31 15:32:00;;;;;;;;;;;22.10;85.00;;;;;;2603131;54;20805;31
2022/05/31 15:34:40;;;;;;;;;;;22.10;84.80;;;;;;2621744;46;19962;31
2022/05/31 15:37:16;;;;;;;;;;;22.10;84.60;;;;;;2603332;54;19943;31
2022/05/31 15:39:54;;;;;;;;;;;22.20;85.80;;;;;;2603044;54;19935;31
2022/05/31 15:42:28;;;;;;;;;;;22.20;85.20;;;;;;2621632;46;19935;31
2022/05/31 15:45:04;;;;;;;;;;;22.20;86.00;;;;;;2621925;46;20789;31
2022/05/31 15:47:38;;;;;;;;;;;22.20;86.20;;;;;;2621598;46;19935;31
2022/05/31 15:50:12;;;;;;;;;;;22.20;85.80;;;;;;2603043;54;19934;31
2022/05/31 15:52:47;;;;;;;;;;;22.20;85.90;;;;;;2621578;46;20808;31
2022/05/31 15:55:26;;;;;;;;;;;22.20;86.60;;;;;;2621817;46;20659;31
2022/05/31 15:58:00;;;;;;;;;;;22.20;85.30;;;;;;2621981;46;19936;31
2022/05/31 16:00:34;;;;;;;;;;;22.20;85.50;;;;;;2602907;54;20041;31
2022/05/31 16:03:09;;;;;;;;;;;22.20;86.10;;;;;;2603174;54;19934;31
2022/05/31 16:05:43;;;;;;;;;;;22.20;86.50;;;;;;2603252;54;20752;31
2022/05/31 16:08:17;;;;;;;;;;;22.20;86.50;;;;;;2621461;46;20680;31
2022/05/31 16:10:54;;;;;;;;;;;22.20;86.60;;;;;;2602746;54;19942;31
2022/05/31 16:13:29;;;;;;;;;;;22.20;86.40;;;;;;2621149;46;21094;31
2022/05/31 16:16:04;;;;;;;;;;;22.20;87.70;;;;;;2621780;46;19998;31
2022/05/31 16:18:38;;;;;;;;;;;22.20;86.80;;;;;;2621241;46;19977;31
2022/05/31 16:21:12;;;;;;;;;;;22.20;86.50;;;;;;2602962;54;19935;31
2022/05/31 16:23:47;;;;;;;;;;;22.20;87.20;;;;;;2621744;46;19941;31
2022/05/31 16:26:24;;;;;;;;;;;22.20;87.50;;;;;;2602973;54;20865;31
2022/05/31 16:29:07;;;;;;;;;;;22.10;86.70;;;;;;2602696;54;19946;31
2022/05/31 16:31:48;;;;;;;;;;;22.10;87.20;;;;;;2621564;47;19935;31
2022/05/31 16:34:29;;;;;;;;;;;22.10;88.20;;;;;;2621343;47;19998;31
2022/05/31 16:41:10;;;;;;;;;;;22.10;87.50;;;;;;2612954;47;19941;31
2022/05/31 16:42:43;;;;;;;;;;;22.10;88.70;;;;;;2602974;54;19935;31
2022/05/31 16:45:18;;;;;;;;;;;22.00;87.50;;;;;;2602898;54;20564;31